Time;durP1;ratioP1;P1;durP2;ratioP2;P2;SDS_P1;SDS_P2;PMS_P1;PMS_P2;Temp;Humidity;BMP_temperature;BMP_pressure;BME280_temperature;BME280_humidity;BME280_pressure;Samples;Min_cycle;Max_cycle;Signal;HPM_P1;HPM_P2
2022/07/12 00:01:43;;;;;;;;;;;21.70;90.20;;;;;;5020116;28;20077;-70
2022/07/12 00:04:09;;;;;;;0.88;0.50;;;21.70;90.20;;;;;;5021812;28;19967;-62
2022/07/12 00:06:35;;;;;;;1.15;0.40;;;21.70;90.20;;;;;;5027570;28;20061;-70
2022/07/12 00:09:01;;;;;;;0.30;0.30;;;21.60;90.10;;;;;;5015024;28;20050;-66
2022/07/12 00:11:27;;;;;;;0.88;0.60;;;21.60;90.10;;;;;;5027287;28;20048;-69
2022/07/12 00:13:52;;;;;;;0.38;0.38;;;21.60;90.10;;;;;;5029789;28;20081;-70
2022/07/12 00:16:18;;;;;;;1.15;0.40;;;21.60;90.20;;;;;;5027569;28;20041;-72
2022/07/12 00:18:44;;;;;;;0.30;0.30;;;21.60;90.20;;;;;;5029722;28;20085;-69
2022/07/12 00:21:09;;;;;;;0.75;0.40;;;21.60;90.20;;;;;;5040829;28;20061;-62
2022/07/12 00:23:35;;;;;;;0.40;0.40;;;21.60;90.20;;;;;;5068348;28;20045;-71
2022/07/12 00:26:04;;;;;;;0.30;0.30;;;21.60;90.20;;;;;;5069743;28;20126;-71
2022/07/12 00:28:30;;;;;;;0.45;0.45;;;21.60;90.20;;;;;;5069048;28;20044;-71
2022/07/12 00:30:57;;;;;;;0.50;0.50;;;21.60;90.20;;;;;;5069370;28;20075;-72
2022/07/12 00:33:22;;;;;;;0.85;0.40;;;21.60;90.20;;;;;;5067046;28;20054;-69
2022/07/12 00:35:48;;;;;;;0.35;0.35;;;21.60;90.20;;;;;;5068406;28;20127;-71
2022/07/12 00:38:14;;;;;;;0.82;0.35;;;21.60;90.20;;;;;;5067963;28;20047;-70
2022/07/12 00:40:39;;;;;;;0.43;0.43;;;21.70;90.20;;;;;;5068723;28;20124;-72
2022/07/12 00:43:05;;;;;;;0.20;0.20;;;21.60;90.20;;;;;;5069369;28;20037;-72
2022/07/12 00:45:31;;;;;;;0.50;0.50;;;21.60;90.20;;;;;;5069011;28;20685;-69
2022/07/12 00:47:57;;;;;;;0.32;0.32;;;21.60;90.20;;;;;;5067790;28;20029;-72
2022/07/12 00:50:23;;;;;;;0.35;0.35;;;21.60;90.20;;;;;;5067872;28;20076;-68
2022/07/12 00:52:51;;;;;;;0.50;0.50;;;21.60;90.20;;;;;;5068601;28;20123;-72
2022/07/12 00:55:18;;;;;;;0.47;0.45;;;21.60;90.20;;;;;;5068839;28;20049;-70
2022/07/12 00:57:44;;;;;;;0.35;0.35;;;21.60;90.20;;;;;;5068649;28;20060;-68
2022/07/12 01:00:13;;;;;;;1.85;0.47;;;21.60;90.20;;;;;;5069144;28;20048;-70
2022/07/12 01:02:39;;;;;;;0.47;0.38;;;21.60;90.20;;;;;;5069046;28;20117;-69
2022/07/12 01:05:06;;;;;;;0.40;0.40;;;21.60;90.20;;;;;;5068181;28;20465;-67
2022/07/12 01:07:34;;;;;;;0.38;0.38;;;21.60;90.20;;;;;;5068024;28;20466;-69
2022/07/12 01:10:00;;;;;;;1.10;0.47;;;21.60;90.20;;;;;;5067745;28;20040;-73
2022/07/12 01:12:26;;;;;;;1.05;0.60;;;21.60;90.20;;;;;;5068673;28;20040;-71
2022/07/12 01:14:52;;;;;;;0.77;0.50;;;21.60;90.20;;;;;;5069272;28;20056;-72
2022/07/12 01:17:20;;;;;;;0.43;0.43;;;21.60;90.20;;;;;;5068455;28;20052;-71
2022/07/12 01:19:50;;;;;;;0.40;0.40;;;21.60;90.20;;;;;;5068480;28;20068;-67
2022/07/12 01:22:17;;;;;;;0.32;0.32;;;21.60;90.20;;;;;;5067848;28;20128;-62
2022/07/12 01:24:46;;;;;;;0.38;0.38;;;21.60;90.20;;;;;;5068343;28;20048;-73
2022/07/12 01:27:13;;;;;;;0.30;0.30;;;21.60;90.20;;;;;;5068799;28;20040;-73
2022/07/12 01:29:39;;;;;;;0.40;0.40;;;21.60;90.40;;;;;;5068013;28;20044;-70
2022/07/12 01:32:24;;;;;;;0.32;0.32;;;21.60;90.20;;;;;;5068710;28;20036;-71
2022/07/12 01:34:57;;;;;;;0.35;0.35;;;21.60;90.20;;;;;;5068641;28;20048;-71
2022/07/12 01:37:24;;;;;;;0.47;0.47;;;21.60;90.20;;;;;;5067643;28;20062;-71
2022/07/12 01:39:55;;;;;;;0.30;0.30;;;21.60;90.10;;;;;;5068007;28;20117;-72
2022/07/12 01:42:22;;;;;;;0.40;0.40;;;21.50;90.10;;;;;;5066383;28;20040;-72
2022/07/12 01:44:49;;;;;;;0.45;0.40;;;21.60;90.10;;;;;;5068947;28;20041;-70
2022/07/12 01:47:17;;;;;;;0.43;0.43;;;21.60;90.10;;;;;;5068754;28;20516;-71
2022/07/12 01:49:42;;;;;;;0.40;0.40;;;21.60;90.20;;;;;;5068404;28;20040;-69
2022/07/12 01:52:09;;;;;;;0.38;0.30;;;21.50;90.10;;;;;;5067083;28;20458;-72
2022/07/12 01:54:35;;;;;;;0.40;0.40;;;21.50;90.10;;;;;;5071050;28;20044;-71
2022/07/12 01:57:03;;;;;;;0.22;0.22;;;21.60;90.20;;;;;;5072387;28;20119;-67
2022/07/12 01:59:29;;;;;;;0.30;0.30;;;21.50;90.10;;;;;;5071516;28;20603;-72
2022/07/12 02:01:56;;;;;;;0.45;0.45;;;21.50;90.10;;;;;;5072098;28;20130;-71
2022/07/12 02:04:21;;;;;;;0.75;0.50;;;21.50;90.10;;;;;;5071652;28;20107;-69
2022/07/12 02:06:48;;;;;;;0.30;0.30;;;21.50;90.10;;;;;;5071304;28;20421;-73
2022/07/12 02:09:14;;;;;;;0.30;0.30;;;21.50;90.10;;;;;;5070899;28;20053;-67
2022/07/12 02:11:41;;;;;;;0.60;0.40;;;21.50;90.10;;;;;;5071253;28;20595;-70
2022/07/12 02:14:07;;;;;;;0.38;0.38;;;21.50;90.10;;;;;;5058146;28;20041;-73
2022/07/12 02:16:33;;;;;;;0.57;0.40;;;21.50;90.10;;;;;;5051020;28;20049;-69
2022/07/12 02:18:59;;;;;;;0.40;0.40;;;21.50;90.10;;;;;;5067664;28;20059;-71
2022/07/12 02:21:25;;;;;;;0.40;0.40;;;21.50;90.10;;;;;;5068687;28;20063;-71
2022/07/12 02:23:51;;;;;;;0.40;0.40;;;21.50;90.10;;;;;;5071079;28;20055;-71
2022/07/12 02:26:16;;;;;;;;;;;21.50;90.10;;;;;;5072209;28;20036;-71
2022/07/12 02:28:43;;;;;;;0.30;0.30;;;21.50;90.10;;;;;;5071437;28;19920;-70
2022/07/12 02:31:08;;;;;;;0.30;0.30;;;21.50;90.10;;;;;;5071525;28;20045;-71
2022/07/12 02:33:34;;;;;;;;;;;21.50;90.10;;;;;;5071537;28;20045;-70
2022/07/12 02:36:00;;;;;;;0.90;0.30;;;21.50;90.10;;;;;;5070559;28;19920;-68
2022/07/12 02:38:26;;;;;;;0.35;0.35;;;21.50;90.10;;;;;;5069731;28;20047;-68
2022/07/12 02:40:54;;;;;;;;;;;21.50;90.10;;;;;;5072143;28;20131;-71
2022/07/12 02:43:24;;;;;;;0.30;0.28;;;21.50;90.10;;;;;;5070404;28;19921;-73
2022/07/12 02:45:51;;;;;;;0.32;0.30;;;21.50;90.10;;;;;;5070901;28;20071;-71
2022/07/12 02:48:18;;;;;;;0.30;0.30;;;21.50;90.10;;;;;;5071320;28;20060;-72
2022/07/12 02:50:44;;;;;;;0.30;0.25;;;21.50;90.10;;;;;;5069406;28;20047;-72
2022/07/12 02:53:10;;;;;;;0.70;0.30;;;21.50;90.10;;;;;;5070408;28;20101;-72
2022/07/12 02:55:38;;;;;;;0.30;0.30;;;21.50;90.10;;;;;;5070924;28;20044;-73
2022/07/12 02:58:07;;;;;;;0.28;0.28;;;21.50;90.10;;;;;;5071117;28;20361;-72
2022/07/12 03:00:33;;;;;;;0.30;0.30;;;21.50;90.10;;;;;;5070060;28;20127;-71
2022/07/12 03:02:58;;;;;;;;;;;21.50;90.10;;;;;;5071421;28;20115;-73
2022/07/12 03:05:24;;;;;;;0.40;0.40;;;21.50;90.10;;;;;;5068718;28;20639;-62
2022/07/12 03:07:50;;;;;;;0.22;0.22;;;21.40;90.10;;;;;;5070169;28;20040;-70
2022/07/12 03:10:16;;;;;;;0.40;0.40;;;21.50;90.10;;;;;;5070924;28;20040;-70
2022/07/12 03:12:42;;;;;;;0.35;0.35;;;21.40;90.10;;;;;;5070300;28;20132;-67
2022/07/12 03:15:08;;;;;;;;;;;21.40;90.10;;;;;;5071227;28;20131;-67
2022/07/12 03:17:34;;;;;;;0.38;0.38;;;21.50;90.10;;;;;;5070430;28;19920;-64
2022/07/12 03:20:00;;;;;;;0.30;0.30;;;21.40;90.10;;;;;;5070451;28;20431;-65
2022/07/12 03:22:26;;;;;;;0.30;0.30;;;21.40;90.10;;;;;;5070288;28;20102;-62
2022/07/12 03:24:51;;;;;;;;;;;21.40;90.10;;;;;;5069496;28;20437;-67
2022/07/12 03:27:18;;;;;;;0.80;0.35;;;21.40;90.10;;;;;;5070211;28;19916;-73
2022/07/12 03:29:44;;;;;;;0.55;0.30;;;21.40;90.10;;;;;;5070190;28;20439;-69
2022/07/12 03:32:09;;;;;;;;;;;21.40;90.10;;;;;;5070910;28;20040;-71
2022/07/12 03:34:36;;;;;;;0.28;0.28;;;21.40;90.10;;;;;;5069369;28;19916;-69
2022/07/12 03:37:02;;;;;;;0.30;0.30;;;21.40;90.10;;;;;;5069363;28;20083;-67
2022/07/12 03:39:28;;;;;;;0.30;0.30;;;21.40;90.10;;;;;;5069286;28;20044;-62
2022/07/12 03:41:53;;;;;;;;;;;21.40;90.10;;;;;;5070657;28;20114;-68
2022/07/12 03:44:19;;;;;;;0.20;0.20;;;21.40;90.00;;;;;;5070511;28;19923;-72
2022/07/12 03:46:45;;;;;;;0.30;0.30;;;21.40;90.10;;;;;;5069536;28;20052;-71
2022/07/12 03:49:11;;;;;;;0.47;0.43;;;21.40;90.10;;;;;;5069728;28;20052;-72
2022/07/12 03:51:36;;;;;;;;;;;21.40;90.10;;;;;;5068982;28;20104;-70
2022/07/12 03:54:05;;;;;;;0.40;0.40;;;21.40;90.10;;;;;;5069202;28;19924;-73
2022/07/12 03:59:14;;;;;;;0.20;0.20;;;21.40;90.10;;;;;;5069534;28;20059;-69
2022/07/12 04:01:40;;;;;;;;;;;21.40;90.10;;;;;;5069627;28;20055;-72
2022/07/12 04:04:06;;;;;;;0.55;0.38;;;21.40;90.10;;;;;;5068497;28;19963;-70
2022/07/12 04:06:31;;;;;;;0.52;0.47;;;21.40;90.10;;;;;;5068361;28;20044;-68
2022/07/12 04:08:57;;;;;;;0.30;0.30;;;21.40;90.10;;;;;;5068677;28;20037;-72
2022/07/12 04:11:23;;;;;;;0.30;0.30;;;21.40;90.10;;;;;;5069453;28;20044;-71
2022/07/12 04:13:48;;;;;;;0.35;0.35;;;21.40;90.10;;;;;;5069214;28;20071;-71
2022/07/12 04:16:14;;;;;;;0.32;0.32;;;21.30;90.10;;;;;;5068926;28;20037;-72
2022/07/12 04:18:39;;;;;;;0.30;0.30;;;21.40;90.10;;;;;;5069304;28;20048;-71
2022/07/12 04:21:05;;;;;;;0.30;0.30;;;21.40;90.10;;;;;;5068544;28;20064;-70
2022/07/12 04:23:31;;;;;;;0.22;0.22;;;21.40;90.10;;;;;;5068651;28;20482;-63
2022/07/12 04:25:57;;;;;;;0.60;0.30;;;21.40;90.10;;;;;;5069738;28;20374;-67
2022/07/12 04:28:22;;;;;;;0.38;0.38;;;21.40;90.10;;;;;;5069667;28;20051;-71
2022/07/12 04:30:48;;;;;;;;;;;21.40;90.10;;;;;;5069306;28;20058;-71
2022/07/12 04:33:14;;;;;;;0.45;0.30;;;21.40;90.10;;;;;;5068354;28;19960;-70
2022/07/12 04:35:40;;;;;;;0.40;0.40;;;21.40;90.10;;;;;;5067886;28;20094;-71
2022/07/12 04:38:07;;;;;;;;;;;21.40;90.20;;;;;;5068791;28;20500;-71
2022/07/12 04:40:32;;;;;;;0.68;0.50;;;21.40;90.10;;;;;;5068958;28;20290;-62
2022/07/12 04:42:58;;;;;;;;;;;21.40;90.10;;;;;;5069811;28;20045;-68
2022/07/12 04:45:24;;;;;;;0.30;0.30;;;21.40;90.10;;;;;;5069263;28;19921;-70
2022/07/12 04:47:49;;;;;;;0.20;0.20;;;21.40;90.10;;;;;;5067654;28;20044;-70
2022/07/12 04:50:15;;;;;;;0.20;0.20;;;21.40;90.10;;;;;;5068438;28;20159;-69
2022/07/12 04:52:40;;;;;;;0.25;0.25;;;21.40;90.10;;;;;;5067963;28;20037;-67
2022/07/12 04:55:06;;;;;;;0.38;0.38;;;21.40;90.10;;;;;;5068839;28;20491;-72
2022/07/12 04:57:32;;;;;;;0.30;0.30;;;21.40;90.10;;;;;;5069082;28;20044;-72
2022/07/12 04:59:58;;;;;;;;;;;21.40;90.10;;;;;;5068117;28;20149;-72
2022/07/12 05:02:24;;;;;;;0.20;0.20;;;21.40;90.10;;;;;;5068818;28;19974;-72
2022/07/12 05:04:49;;;;;;;0.30;0.30;;;21.40;90.10;;;;;;5068134;28;20039;-70
2022/07/12 05:07:15;;;;;;;;;;;21.40;90.10;;;;;;5055551;28;20049;-71
2022/07/12 05:09:41;;;;;;;0.47;0.43;;;21.40;90.10;;;;;;5049697;28;19927;-67
2022/07/12 05:12:07;;;;;;;0.30;0.30;;;21.40;90.10;;;;;;5069255;28;20526;-71
2022/07/12 05:14:33;;;;;;;0.25;0.20;;;21.40;90.10;;;;;;5069074;28;20056;-70
2022/07/12 05:16:58;;;;;;;;;;;21.40;90.10;;;;;;5068998;28;20040;-71
2022/07/12 05:19:24;;;;;;;0.35;0.35;;;21.40;90.10;;;;;;5068729;28;19927;-70
2022/07/12 05:21:50;;;;;;;0.30;0.30;;;21.40;90.10;;;;;;5067072;28;20091;-69
2022/07/12 05:24:16;;;;;;;0.45;0.40;;;21.40;90.10;;;;;;5068233;28;20044;-71
2022/07/12 05:26:41;;;;;;;;;;;21.40;90.10;;;;;;5068703;28;20056;-69
2022/07/12 05:29:07;;;;;;;0.32;0.30;;;21.40;90.10;;;;;;5072558;28;19969;-72
2022/07/12 05:31:33;;;;;;;0.40;0.20;;;21.40;90.10;;;;;;5072757;28;20080;-66
2022/07/12 05:33:59;;;;;;;0.20;0.20;;;21.40;90.10;;;;;;5072148;28;20454;-71
2022/07/12 05:36:25;;;;;;;0.30;0.30;;;21.40;90.10;;;;;;5071587;28;20052;-73
2022/07/12 05:38:51;;;;;;;0.20;0.20;;;21.50;90.10;;;;;;5064955;28;20098;-70
2022/07/12 05:41:17;;;;;;;;;;;21.50;90.10;;;;;;5070891;28;20044;-71
2022/07/12 05:43:43;;;;;;;0.30;0.30;;;21.50;90.10;;;;;;5052474;28;20642;-72
2022/07/12 05:46:10;;;;;;;0.10;0.10;;;21.50;90.10;;;;;;5062208;28;20053;-72
2022/07/12 05:48:36;;;;;;;0.32;0.32;;;21.50;90.10;;;;;;5071062;28;20048;-71
2022/07/12 05:53:47;;;;;;;0.40;0.40;;;21.50;90.10;;;;;;5071219;28;20044;-72
2022/07/12 05:56:13;;;;;;;;;;;21.50;90.10;;;;;;5072924;28;20040;-70
2022/07/12 05:58:39;;;;;;;0.40;0.40;;;21.50;90.10;;;;;;5072259;28;20375;-61
2022/07/12 06:01:05;;;;;;;0.32;0.32;;;21.50;90.10;;;;;;5072160;28;20050;-71
2022/07/12 06:03:31;;;;;;;0.40;0.40;;;21.50;90.10;;;;;;5071904;28;20033;-69
2022/07/12 06:05:57;;;;;;;0.30;0.30;;;21.50;90.10;;;;;;5070630;28;20105;-69
2022/07/12 06:08:22;;;;;;;;;;;21.50;90.10;;;;;;5071885;28;20048;-71
2022/07/12 06:10:48;;;;;;;0.30;0.30;;;21.50;90.10;;;;;;5070857;28;19935;-71
2022/07/12 06:13:14;;;;;;;0.20;0.20;;;21.50;90.00;;;;;;5071568;28;20047;-71
2022/07/12 06:15:39;;;;;;;0.30;0.30;;;21.60;90.10;;;;;;5071602;28;20470;-62
2022/07/12 06:18:05;;;;;;;0.20;0.20;;;21.60;90.10;;;;;;5071712;28;20044;-71
2022/07/12 06:20:31;;;;;;;0.32;0.32;;;21.60;90.10;;;;;;5070817;28;20041;-71
2022/07/12 06:22:57;;;;;;;0.20;0.20;;;21.60;90.30;;;;;;5070803;28;20055;-71
2022/07/12 06:25:23;;;;;;;0.13;0.13;;;21.60;90.10;;;;;;5071185;28;20044;-72
2022/07/12 06:27:49;;;;;;;0.30;0.30;;;21.60;90.10;;;;;;5071669;28;20139;-70
2022/07/12 06:30:19;;;;;;;0.50;0.50;;;21.60;90.10;;;;;;5071632;28;20052;-70
2022/07/12 06:32:46;;;;;;;0.30;0.30;;;21.60;90.00;;;;;;5071123;28;20546;-69
2022/07/12 06:35:12;;;;;;;0.30;0.30;;;21.60;90.00;;;;;;5070745;28;20044;-70
2022/07/12 06:37:38;;;;;;;0.43;0.30;;;21.60;90.00;;;;;;5070954;28;20533;-65
2022/07/12 06:40:05;;;;;;;1.92;0.40;;;21.60;90.00;;;;;;5068334;28;20170;-71
2022/07/12 06:42:30;;;;;;;0.25;0.25;;;21.60;90.00;;;;;;5071643;28;20044;-69
2022/07/12 06:44:56;;;;;;;0.40;0.40;;;21.60;90.00;;;;;;5069988;28;20641;-71
2022/07/12 06:47:22;;;;;;;0.40;0.40;;;21.60;90.00;;;;;;5051388;28;20049;-72
2022/07/12 06:49:48;;;;;;;0.50;0.30;;;21.60;90.00;;;;;;5062783;28;20082;-70
2022/07/12 06:52:13;;;;;;;0.30;0.30;;;21.60;90.00;;;;;;5070411;28;20119;-71
2022/07/12 06:54:40;;;;;;;0.40;0.40;;;21.60;90.00;;;;;;5069271;28;20136;-70
2022/07/12 06:57:06;;;;;;;0.52;0.52;;;21.60;90.00;;;;;;5070784;28;20371;-72
2022/07/12 06:59:31;;;;;;;;;;;21.60;90.00;;;;;;5071357;28;20050;-66
2022/07/12 07:01:57;;;;;;;0.57;0.30;;;21.60;90.10;;;;;;5070632;28;20376;-67
2022/07/12 07:04:23;;;;;;;;;;;21.60;90.30;;;;;;5071599;28;20134;-67
2022/07/12 07:06:49;;;;;;;0.40;0.40;;;21.60;90.10;;;;;;5069051;28;19916;-67
2022/07/12 07:09:15;;;;;;;0.40;0.40;;;21.60;90.00;;;;;;5069163;28;20040;-69
2022/07/12 07:11:41;;;;;;;;;;;21.60;90.00;;;;;;5066647;28;20207;-70
2022/07/12 07:14:07;;;;;;;0.30;0.30;;;21.60;90.10;;;;;;5061036;28;20392;-71
2022/07/12 07:16:32;;;;;;;0.35;0.30;;;21.60;90.00;;;;;;5068161;28;20492;-70
2022/07/12 07:18:58;;;;;;;0.43;0.43;;;21.60;90.00;;;;;;5068387;28;20040;-72
2022/07/12 07:21:24;;;;;;;0.30;0.30;;;21.60;90.00;;;;;;5079783;28;20052;-71
2022/07/12 07:23:50;;;;;;;0.75;0.45;;;21.60;90.00;;;;;;5067886;28;20052;-68
2022/07/12 07:26:16;;;;;;;0.40;0.40;;;21.60;90.00;;;;;;5066896;28;20363;-71
2022/07/12 07:31:26;;;;;;;0.30;0.30;;;21.60;90.00;;;;;;5067650;28;20049;-71
2022/07/12 07:33:52;;;;;;;0.30;0.30;;;21.60;90.00;;;;;;5067297;28;20036;-72
2022/07/12 07:36:18;;;;;;;0.30;0.30;;;21.60;90.00;;;;;;5068187;28;20037;-70
2022/07/12 07:38:43;;;;;;;0.20;0.20;;;21.60;90.00;;;;;;5068916;28;20474;-70
2022/07/12 07:41:09;;;;;;;0.40;0.40;;;21.60;90.00;;;;;;5069255;28;20044;-70
2022/07/12 07:43:35;;;;;;;0.57;0.50;;;21.60;90.00;;;;;;5067101;28;20036;-70
2022/07/12 07:46:01;;;;;;;;;;;21.60;90.00;;;;;;5068762;28;20048;-65
2022/07/12 07:48:27;;;;;;;0.40;0.40;;;21.60;90.10;;;;;;5069677;28;20431;-70
2022/07/12 07:50:53;;;;;;;0.75;0.40;;;21.60;90.00;;;;;;5064980;28;20036;-68
2022/07/12 07:53:19;;;;;;;;;;;21.60;90.00;;;;;;5064240;28;20146;-70
2022/07/12 07:55:45;;;;;;;0.40;0.40;;;21.60;90.10;;;;;;5054027;28;19931;-70
2022/07/12 07:58:10;;;;;;;;;;;21.60;90.00;;;;;;5070814;28;20098;-70
2022/07/12 08:00:36;;;;;;;0.30;0.30;;;21.60;90.00;;;;;;5063586;28;19916;-70
2022/07/12 08:03:02;;;;;;;0.70;0.40;;;21.60;90.00;;;;;;5070435;28;20044;-70
2022/07/12 08:05:28;;;;;;;0.32;0.32;;;21.60;90.00;;;;;;5050748;28;20094;-69
2022/07/12 08:07:53;;;;;;;;;;;21.60;90.00;;;;;;5059855;28;20044;-70
2022/07/12 08:10:19;;;;;;;0.50;0.30;;;21.60;90.00;;;;;;5057017;28;19927;-69
2022/07/12 08:12:45;;;;;;;1.35;0.50;;;21.70;90.00;;;;;;5059743;28;20110;-68
2022/07/12 08:15:11;;;;;;;0.50;0.50;;;21.70;90.00;;;;;;5051412;28;20041;-68
2022/07/12 08:17:37;;;;;;;1.35;0.60;;;21.70;90.00;;;;;;5064505;28;20449;-66
2022/07/12 08:20:04;;;;;;;2.60;1.25;;;21.70;90.00;;;;;;5066424;28;20037;-65
2022/07/12 08:22:30;;;;;;;2.08;1.20;;;21.70;90.10;;;;;;5058013;28;20084;-70
2022/07/12 08:24:55;;;;;;;3.08;1.55;;;21.70;90.10;;;;;;5068237;28;20090;-69
2022/07/12 08:27:21;;;;;;;2.30;1.25;;;21.70;90.20;;;;;;5069561;28;20055;-71
2022/07/12 08:29:47;;;;;;;;;;;21.70;90.20;;;;;;5071172;28;20510;-68
2022/07/12 08:32:13;;;;;;;2.15;1.00;;;21.70;90.50;;;;;;5068098;28;19964;-69
2022/07/12 08:34:38;;;;;;;1.60;1.23;;;21.70;90.30;;;;;;5057765;28;20036;-69
2022/07/12 08:37:04;;;;;;;1.48;1.00;;;21.70;90.30;;;;;;5069170;28;20156;-69
2022/07/12 08:39:30;;;;;;;1.02;0.93;;;21.70;90.30;;;;;;5064572;28;20044;-70
2022/07/12 08:41:55;;;;;;;3.88;1.15;;;21.70;90.30;;;;;;5050458;28;20106;-62
2022/07/12 08:44:21;;;;;;;1.98;1.27;;;21.70;90.30;;;;;;5051045;28;20047;-71
2022/07/12 08:46:47;;;;;;;0.63;0.63;;;21.70;90.40;;;;;;5053095;28;20041;-71
2022/07/12 08:49:13;;;;;;;1.95;0.77;;;21.80;90.40;;;;;;5050036;28;20478;-70
2022/07/12 08:51:38;;;;;;;0.98;0.95;;;21.80;90.40;;;;;;5063337;28;20716;-65
2022/07/12 08:54:15;;;;;;;0.95;0.88;;;21.80;90.40;;;;;;5060372;28;20053;-64
2022/07/12 08:56:43;;;;;;;1.38;0.90;;;21.80;90.40;;;;;;5065293;28;20440;-68
2022/07/12 08:59:09;;;;;;;0.77;0.77;;;21.80;90.40;;;;;;5068621;28;20036;-69
2022/07/12 09:01:51;;;;;;;1.25;0.93;;;21.80;90.50;;;;;;5066111;28;20076;-70
2022/07/12 09:04:22;;;;;;;2.15;0.80;;;21.80;90.50;;;;;;5063164;28;20035;-69
2022/07/12 09:06:48;;;;;;;1.33;1.00;;;21.80;90.50;;;;;;5069227;28;21070;-66
2022/07/12 09:09:32;;;;;;;0.80;0.80;;;21.80;90.50;;;;;;5072662;28;20152;-69
2022/07/12 09:11:58;;;;;;;0.80;0.80;;;21.80;90.90;;;;;;5073606;28;20833;-61
2022/07/12 09:14:26;;;;;;;1.73;1.00;;;21.80;90.50;;;;;;5073993;28;20043;-71
2022/07/12 09:16:58;;;;;;;1.52;1.25;;;21.80;90.60;;;;;;5073146;28;20037;-68
2022/07/12 09:19:24;;;;;;;1.13;0.80;;;21.90;90.60;;;;;;5065932;28;20059;-69
2022/07/12 09:21:54;;;;;;;2.00;0.90;;;21.90;90.60;;;;;;5066451;28;20478;-68
2022/07/12 09:24:29;;;;;;;1.00;0.90;;;21.90;90.70;;;;;;5071685;28;20075;-70
2022/07/12 09:27:00;;;;;;;0.80;0.80;;;21.90;90.70;;;;;;5070248;28;20127;-71
2022/07/12 09:29:26;;;;;;;0.77;0.77;;;21.90;90.70;;;;;;5071700;28;20047;-68
2022/07/12 09:37:23;;;;;;;1.42;0.93;;;21.90;90.70;;;;;;5072351;28;20421;-69
2022/07/12 09:39:49;;;;;;;0.80;0.77;;;21.90;90.70;;;;;;5072545;28;20052;-67
2022/07/12 09:42:14;;;;;;;0.65;0.65;;;21.80;90.60;;;;;;5073035;28;20044;-65
2022/07/12 09:44:41;;;;;;;1.45;0.80;;;21.90;90.70;;;;;;5072563;28;20912;-69
2022/07/12 09:47:15;;;;;;;0.82;0.60;;;21.90;90.70;;;;;;5069097;28;20067;-69
2022/07/12 09:49:44;;;;;;;1.25;0.88;;;21.90;90.70;;;;;;5072090;28;20522;-67
2022/07/12 09:52:21;;;;;;;0.60;0.60;;;21.90;90.70;;;;;;5069735;28;20052;-68
2022/07/12 09:54:52;;;;;;;1.63;1.10;;;21.90;90.70;;;;;;5072480;28;20402;-68
2022/07/12 09:57:29;;;;;;;1.00;0.90;;;21.90;90.70;;;;;;5073071;28;20044;-69
2022/07/12 09:59:57;;;;;;;2.97;0.90;;;21.90;90.70;;;;;;5073166;28;20126;-68
2022/07/12 10:02:23;;;;;;;0.80;0.70;;;21.90;90.70;;;;;;5073264;28;20055;-66
2022/07/12 10:04:50;;;;;;;1.08;0.98;;;21.90;90.70;;;;;;5073266;28;20044;-68
2022/07/12 10:07:16;;;;;;;1.63;1.02;;;21.90;90.70;;;;;;5072375;28;20089;-68
2022/07/12 10:09:48;;;;;;;1.60;1.00;;;21.90;90.70;;;;;;5072726;28;20040;-68
2022/07/12 10:12:19;;;;;;;2.05;1.27;;;21.90;90.80;;;;;;5073243;28;20501;-69
2022/07/12 10:14:46;;;;;;;1.25;0.88;;;21.90;90.80;;;;;;5074074;28;20056;-68
2022/07/12 10:17:13;;;;;;;1.90;0.82;;;21.90;90.80;;;;;;5072981;28;20479;-65
2022/07/12 10:19:39;;;;;;;1.05;0.95;;;22.00;90.90;;;;;;5070767;28;20075;-67
2022/07/12 10:22:20;;;;;;;2.40;1.20;;;22.00;90.90;;;;;;5067854;28;20044;-63
2022/07/12 10:24:54;;;;;;;10.60;2.28;;;22.00;91.10;;;;;;5063202;28;20076;-66
2022/07/12 10:27:20;;;;;;;6.50;2.13;;;22.00;91.10;;;;;;5069586;28;20049;-71
2022/07/12 10:29:52;;;;;;;7.78;2.13;;;22.00;91.20;;;;;;5071542;28;20098;-71
2022/07/12 10:32:35;;;;;;;11.52;2.45;;;22.00;91.20;;;;;;5071396;28;20119;-66
2022/07/12 10:35:12;;;;;;;9.20;2.53;;;22.10;91.30;;;;;;5065119;28;20086;-68
2022/07/12 10:37:38;;;;;;;5.85;1.98;;;22.10;91.30;;;;;;5064209;28;20067;-65
2022/07/12 10:40:10;;;;;;;12.40;2.25;;;22.10;91.30;;;;;;5070515;28;20470;-61
2022/07/12 10:42:35;;;;;;;6.25;1.90;;;22.10;91.30;;;;;;5072808;28;20048;-69
2022/07/12 10:45:15;;;;;;;7.63;2.10;;;22.20;91.30;;;;;;5069042;28;20044;-71
2022/07/12 10:47:57;;;;;;;6.78;1.70;;;22.20;91.30;;;;;;5071429;28;20051;-70
2022/07/12 10:50:41;;;;;;;6.93;2.13;;;22.20;91.30;;;;;;5071063;28;20066;-71
2022/07/12 10:53:19;;;;;;;6.10;1.80;;;22.20;91.30;;;;;;5071155;28;20122;-71
2022/07/12 10:56:03;;;;;;;7.47;2.33;;;22.20;91.30;;;;;;5072705;28;20040;-69
2022/07/12 10:58:35;;;;;;;4.70;1.80;;;22.20;91.30;;;;;;5072586;28;20127;-71
2022/07/12 11:01:06;;;;;;;11.65;2.25;;;22.20;91.30;;;;;;5069401;28;20107;-71
2022/07/12 11:03:52;;;;;;;3.80;1.80;;;22.20;91.30;;;;;;5066823;28;20490;-72
2022/07/12 11:06:25;;;;;;;5.03;2.30;;;22.20;91.30;;;;;;5060689;28;20093;-71
2022/07/12 11:08:51;;;;;;;6.30;1.80;;;22.20;91.20;;;;;;5069210;28;20759;-65
2022/07/12 11:11:18;;;;;;;4.32;1.50;;;22.20;91.20;;;;;;5063481;28;20092;-71
2022/07/12 11:13:43;;;;;;;5.60;2.42;;;22.30;91.30;;;;;;5067944;28;20068;-64
2022/07/12 11:16:09;;;;;;;5.70;1.80;;;22.30;91.30;;;;;;5071147;28;20158;-69
2022/07/12 11:18:36;;;;;;;6.57;1.85;;;22.30;91.30;;;;;;5057872;28;20132;-67
2022/07/12 11:21:02;;;;;;;3.95;1.83;;;22.30;91.30;;;;;;5059425;28;20049;-71
2022/07/12 11:23:29;;;;;;;6.72;1.80;;;22.30;91.30;;;;;;5059407;28;20094;-71
2022/07/12 11:25:57;;;;;;;3.50;1.27;;;22.30;91.30;;;;;;5062398;28;20045;-69
2022/07/12 11:28:27;;;;;;;5.65;1.67;;;22.40;91.30;;;;;;5063903;28;20053;-65
2022/07/12 11:31:00;;;;;;;7.70;1.80;;;22.30;91.30;;;;;;5062153;28;20045;-71
2022/07/12 11:33:32;;;;;;;1.55;1.10;;;22.40;91.30;;;;;;5057673;28;20545;-70
2022/07/12 11:35:58;;;;;;;2.55;1.17;;;22.30;91.20;;;;;;5051535;28;20489;-71
2022/07/12 11:38:28;;;;;;;3.55;1.13;;;22.40;91.30;;;;;;5055057;28;20048;-63
2022/07/12 11:41:00;;;;;;;1.98;1.17;;;22.40;91.30;;;;;;5066420;28;20056;-70
2022/07/12 11:43:27;;;;;;;3.83;1.55;;;22.40;91.20;;;;;;5054681;28;20115;-69
2022/07/12 11:45:54;;;;;;;2.55;1.60;;;22.40;91.20;;;;;;5049395;28;20421;-72
2022/07/12 11:48:21;;;;;;;5.80;1.40;;;22.40;91.20;;;;;;5054929;28;20049;-69
2022/07/12 11:50:47;;;;;;;11.75;1.95;;;22.40;91.20;;;;;;5061595;28;20048;-69
2022/07/12 11:53:19;;;;;;;2.13;1.05;;;22.40;91.20;;;;;;5054661;28;20048;-71
2022/07/12 11:55:48;;;;;;;2.03;1.30;;;22.40;91.20;;;;;;5052934;28;20129;-71
2022/07/12 11:58:15;;;;;;;5.40;1.45;;;22.40;91.20;;;;;;5063647;28;20093;-71
2022/07/12 12:00:41;;;;;;;2.95;1.77;;;22.40;91.20;;;;;;5056256;28;20398;-69
2022/07/12 12:03:07;;;;;;;3.00;1.38;;;22.40;91.20;;;;;;5060025;28;20045;-70
2022/07/12 12:05:34;;;;;;;5.70;1.40;;;22.40;91.20;;;;;;5049695;28;20114;-71
2022/07/12 12:08:01;;;;;;;5.53;1.30;;;22.40;91.20;;;;;;5066604;28;20040;-68
2022/07/12 12:10:27;;;;;;;1.77;1.10;;;22.40;91.20;;;;;;5058529;28;20037;-72
2022/07/12 12:12:55;;;;;;;2.28;1.13;;;22.40;91.20;;;;;;5070304;28;20127;-62
2022/07/12 12:15:27;;;;;;;5.20;1.27;;;22.40;91.20;;;;;;5069299;28;20048;-71
2022/07/12 12:17:54;;;;;;;2.08;1.25;;;22.40;91.40;;;;;;5068327;28;20051;-72
2022/07/12 12:20:25;;;;;;;1.35;1.10;;;22.40;91.20;;;;;;5067591;28;20048;-70
2022/07/12 12:22:53;;;;;;;2.85;1.33;;;22.40;91.10;;;;;;5054145;28;20423;-68
2022/07/12 12:25:20;;;;;;;2.47;1.17;;;22.40;91.20;;;;;;5067234;28;20041;-71
2022/07/12 12:27:54;;;;;;;3.30;1.23;;;22.40;91.20;;;;;;5060923;28;20048;-70
2022/07/12 12:30:20;;;;;;;4.57;1.52;;;22.40;91.30;;;;;;5049366;28;20505;-68
2022/07/12 12:32:52;;;;;;;2.65;1.10;;;22.40;91.30;;;;;;5050593;28;20048;-72
2022/07/12 12:35:20;;;;;;;2.15;1.10;;;22.40;91.40;;;;;;5062969;28;20059;-71
2022/07/12 12:37:59;;;;;;;3.33;1.35;;;22.50;91.40;;;;;;5061121;28;20405;-69
2022/07/12 12:40:27;;;;;;;3.20;1.42;;;22.50;91.40;;;;;;5065810;28;20102;-69
2022/07/12 12:43:06;;;;;;;2.03;1.08;;;22.50;91.40;;;;;;5062800;28;20120;-71
2022/07/12 12:45:31;;;;;;;1.95;1.15;;;22.50;91.40;;;;;;5049989;28;20049;-71
2022/07/12 12:47:59;;;;;;;2.60;1.20;;;;;;;;;;5051651;28;20074;-71
2022/07/12 12:50:45;;;;;;;2.30;1.33;;;;;;;;;;5056387;28;20044;-64
2022/07/12 12:53:12;;;;;;;2.88;1.10;;;;;;;;;;5049598;28;20076;-72
2022/07/12 12:55:39;;;;;;;3.08;1.30;;;;;;;;;;5052262;28;20542;-72
2022/07/12 12:58:05;;;;;;;1.67;0.93;;;;;;;;;;5070451;28;20040;-70
2022/07/12 13:00:31;;;;;;;1.95;1.30;;;;;;;;;;5075468;28;20055;-72
2022/07/12 13:03:00;;;;;;;1.10;0.85;;;;;;;;;;5065010;28;20041;-69
2022/07/12 13:05:29;;;;;;;2.58;1.10;;;;;;;;;;5048737;28;20044;-71
2022/07/12 13:07:55;;;;;;;0.82;0.73;;;;;;;;;;5049378;28;20363;-68
2022/07/12 13:10:22;;;;;;;1.45;0.95;;;;;;;;;;5050055;28;20037;-71
2022/07/12 13:12:48;;;;;;;2.42;1.02;;;;;;;;;;5050195;28;20080;-71